sensor_id;sensor_type;location;lat;lon;timestamp;pressure;altitude;pressure_sealevel;temperature;humidity
13348;BME280;6743;49.934;9.138;2023-02-12T00:00:31;102571.28;;;4.80;100.00
13348;BME280;6743;49.934;9.138;2023-02-12T00:02:57;102578.03;;;4.85;100.00
13348;BME280;6743;49.934;9.138;2023-02-12T00:05:23;102577.16;;;4.85;100.00
13348;BME280;6743;49.934;9.138;2023-02-12T00:07:49;102578.13;;;4.84;100.00
13348;BME280;6743;49.934;9.138;2023-02-12T00:10:16;102571.16;;;4.83;100.00
13348;BME280;6743;49.934;9.138;2023-02-12T00:12:42;102590.47;;;4.82;100.00
13348;BME280;6743;49.934;9.138;2023-02-12T00:15:08;102580.03;;;4.80;100.00
13348;BME280;6743;49.934;9.138;2023-02-12T00:17:34;102570.47;;;4.78;100.00
13348;BME280;6743;49.934;9.138;2023-02-12T00:20:00;102567.03;;;4.77;100.00
13348;BME280;6743;49.934;9.138;2023-02-12T00:22:26;102576.75;;;4.75;100.00
13348;BME280;6743;49.934;9.138;2023-02-12T00:24:53;102575.84;;;4.76;100.00
13348;BME280;6743;49.934;9.138;2023-02-12T00:27:19;102581.09;;;4.76;100.00
13348;BME280;6743;49.934;9.138;2023-02-12T00:29:45;102578.47;;;4.76;100.00
13348;BME280;6743;49.934;9.138;2023-02-12T00:32:11;102581.09;;;4.76;100.00
13348;BME280;6743;49.934;9.138;2023-02-12T00:34:39;102578.53;;;4.74;100.00
13348;BME280;6743;49.934;9.138;2023-02-12T00:37:05;102581.16;;;4.74;100.00
13348;BME280;6743;49.934;9.138;2023-02-12T00:39:31;102569.00;;;4.72;100.00
13348;BME280;6743;49.934;9.138;2023-02-12T00:41:57;102576.03;;;4.71;100.00
13348;BME280;6743;49.934;9.138;2023-02-12T00:44:23;102579.53;;;4.72;100.00
13348;BME280;6743;49.934;9.138;2023-02-12T00:46:49;102582.16;;;4.72;100.00
13348;BME280;6743;49.934;9.138;2023-02-12T00:49:15;102580.38;;;4.72;100.00
13348;BME280;6743;49.934;9.138;2023-02-12T00:51:44;102580.44;;;4.71;100.00
13348;BME280;6743;49.934;9.138;2023-02-12T00:54:09;102580.53;;;4.69;100.00
13348;BME280;6743;49.934;9.138;2023-02-12T00:56:35;102584.94;;;4.69;100.00
13348;BME280;6743;49.934;9.138;2023-02-12T00:59:01;102578.81;;;4.68;100.00
13348;BME280;6743;49.934;9.138;2023-02-12T01:01:27;102553.91;;;4.57;100.00
13348;BME280;6743;49.934;9.138;2023-02-12T01:03:53;102568.25;;;4.70;100.00
13348;BME280;6743;49.934;9.138;2023-02-12T01:06:19;102562.13;;;4.69;100.00
13348;BME280;6743;49.934;9.138;2023-02-12T01:08:49;102541.72;;;4.56;100.00
13348;BME280;6743;49.934;9.138;2023-02-12T01:11:15;102563.81;;;4.70;100.00
13348;BME280;6743;49.934;9.138;2023-02-12T01:13:41;102565.50;;;4.71;100.00
13348;BME280;6743;49.934;9.138;2023-02-12T01:16:08;102569.91;;;4.71;100.00
13348;BME280;6743;49.934;9.138;2023-02-12T01:18:38;102557.84;;;4.67;100.00
13348;BME280;6743;49.934;9.138;2023-02-12T01:21:09;102562.03;;;4.71;100.00
13348;BME280;6743;49.934;9.138;2023-02-12T01:23:35;102553.50;;;4.66;100.00
13348;BME280;6743;49.934;9.138;2023-02-12T01:26:01;102561.19;;;4.70;100.00
13348;BME280;6743;49.934;9.138;2023-02-12T01:28:29;102564.75;;;4.69;100.00
13348;BME280;6743;49.934;9.138;2023-02-12T01:30:55;102570.00;;;4.69;100.00
13348;BME280;6743;49.934;9.138;2023-02-12T01:33:21;102576.19;;;4.68;100.00
13348;BME280;6743;49.934;9.138;2023-02-12T01:35:46;102568.38;;;4.67;100.00
13348;BME280;6743;49.934;9.138;2023-02-12T01:38:12;102560.47;;;4.67;100.00
13348;BME280;6743;49.934;9.138;2023-02-12T01:40:38;102564.88;;;4.66;100.00
13348;BME280;6743;49.934;9.138;2023-02-12T01:43:09;102554.50;;;4.63;100.00
13348;BME280;6743;49.934;9.138;2023-02-12T01:45:46;102544.59;;;4.50;100.00
13348;BME280;6743;49.934;9.138;2023-02-12T01:48:13;102565.09;;;4.62;100.00
13348;BME280;6743;49.934;9.138;2023-02-12T01:50:42;102561.63;;;4.61;100.00
13348;BME280;6743;49.934;9.138;2023-02-12T01:53:09;102555.50;;;4.61;100.00
13348;BME280;6743;49.934;9.138;2023-02-12T01:55:35;102550.31;;;4.59;100.00
13348;BME280;6743;49.934;9.138;2023-02-12T01:58:01;102551.16;;;4.60;100.00
13348;BME280;6743;49.934;9.138;2023-02-12T02:00:29;102550.38;;;4.58;100.00
13348;BME280;6743;49.934;9.138;2023-02-12T02:02:57;102552.16;;;4.57;100.00
13348;BME280;6743;49.934;9.138;2023-02-12T02:05:30;102552.16;;;4.57;100.00
13348;BME280;6743;49.934;9.138;2023-02-12T02:07:59;102554.78;;;4.57;100.00
13348;BME280;6743;49.934;9.138;2023-02-12T02:10:25;102552.09;;;4.59;100.00
13348;BME280;6743;49.934;9.138;2023-02-12T02:12:51;102552.09;;;4.59;100.00
13348;BME280;6743;49.934;9.138;2023-02-12T02:15:36;102553.84;;;4.58;100.00
13348;BME280;6743;49.934;9.138;2023-02-12T02:18:07;102564.38;;;4.58;100.00
13348;BME280;6743;49.934;9.138;2023-02-12T02:24:09;102543.28;;;4.60;100.00
13348;BME280;6743;49.934;9.138;2023-02-12T02:26:56;102552.09;;;4.59;100.00
13348;BME280;6743;49.934;9.138;2023-02-12T02:32:43;102551.22;;;4.58;100.00
13348;BME280;6743;49.934;9.138;2023-02-12T02:35:16;102541.63;;;4.57;100.00
13348;BME280;6743;49.934;9.138;2023-02-12T02:37:47;102539.84;;;4.58;100.00
13348;BME280;6743;49.934;9.138;2023-02-12T02:40:17;102548.53;;;4.60;100.00
13348;BME280;6743;49.934;9.138;2023-02-12T02:42:47;102551.09;;;4.61;100.00
13348;BME280;6743;49.934;9.138;2023-02-12T02:45:20;102554.50;;;4.63;100.00
13348;BME280;6743;49.934;9.138;2023-02-12T02:47:53;102551.87;;;4.63;100.00
13348;BME280;6743;49.934;9.138;2023-02-12T02:50:22;102554.50;;;4.63;100.00
13348;BME280;6743;49.934;9.138;2023-02-12T02:52:53;102557.06;;;4.65;100.00
13348;BME280;6743;49.934;9.138;2023-02-12T02:55:24;102547.75;;;4.58;100.00
13348;BME280;6743;49.934;9.138;2023-02-12T02:57:53;102557.97;;;4.64;100.00
13348;BME280;6743;49.934;9.138;2023-02-12T03:00:25;102558.84;;;4.64;100.00
13348;BME280;6743;49.934;9.138;2023-02-12T03:02:56;102565.81;;;4.65;100.00
13348;BME280;6743;49.934;9.138;2023-02-12T03:05:28;102562.31;;;4.65;100.00
13348;BME280;6743;49.934;9.138;2023-02-12T03:07:59;102571.12;;;4.64;100.00
13348;BME280;6743;49.934;9.138;2023-02-12T03:10:31;102566.81;;;4.63;100.00
13348;BME280;6743;49.934;9.138;2023-02-12T03:13:02;102562.66;;;4.57;100.00
13348;BME280;6743;49.934;9.138;2023-02-12T03:15:31;102578.38;;;4.59;100.00
13348;BME280;6743;49.934;9.138;2023-02-12T03:18:00;102565.28;;;4.57;100.00
13348;BME280;6743;49.934;9.138;2023-02-12T03:20:30;102569.69;;;4.57;100.00
13348;BME280;6743;49.934;9.138;2023-02-12T03:23:04;102555.22;;;4.48;100.00
13348;BME280;6743;49.934;9.138;2023-02-12T03:25:34;102554.31;;;4.49;100.00
13348;BME280;6743;49.934;9.138;2023-02-12T03:28:06;102564.59;;;4.54;100.00
13348;BME280;6743;49.934;9.138;2023-02-12T03:30:40;102568.16;;;4.53;100.00
13348;BME280;6743;49.934;9.138;2023-02-12T03:33:17;102573.34;;;4.54;100.00
13348;BME280;6743;49.934;9.138;2023-02-12T03:35:54;102574.19;;;4.55;100.00
13348;BME280;6743;49.934;9.138;2023-02-12T03:38:32;102563.75;;;4.53;100.00
13348;BME280;6743;49.934;9.138;2023-02-12T03:41:04;102568.16;;;4.53;100.00
13348;BME280;6743;49.934;9.138;2023-02-12T03:43:40;102568.16;;;4.53;100.00
13348;BME280;6743;49.934;9.138;2023-02-12T03:46:14;102569.00;;;4.53;100.00
13348;BME280;6743;49.934;9.138;2023-02-12T03:48:49;102577.81;;;4.52;100.00
13348;BME280;6743;49.934;9.138;2023-02-12T03:51:21;102576.94;;;4.52;100.00
13348;BME280;6743;49.934;9.138;2023-02-12T03:53:49;102573.41;;;4.53;100.00
13348;BME280;6743;49.934;9.138;2023-02-12T03:56:19;102557.91;;;4.47;100.00
13348;BME280;6743;49.934;9.138;2023-02-12T03:58:47;102569.00;;;4.53;100.00
13348;BME280;6743;49.934;9.138;2023-02-12T04:01:13;102573.34;;;4.54;100.00
13348;BME280;6743;49.934;9.138;2023-02-12T04:03:39;102569.84;;;4.54;100.00
13348;BME280;6743;49.934;9.138;2023-02-12T04:06:18;102572.41;;;4.55;100.00
13348;BME280;6743;49.934;9.138;2023-02-12T04:08:44;102564.53;;;4.55;100.00
13348;BME280;6743;49.934;9.138;2023-02-12T04:11:20;102576.81;;;4.55;100.00
13348;BME280;6743;49.934;9.138;2023-02-12T04:13:59;102570.66;;;4.56;100.00
13348;BME280;6743;49.934;9.138;2023-02-12T04:16:34;102575.06;;;4.55;100.00
13348;BME280;6743;49.934;9.138;2023-02-12T04:19:05;102568.16;;;4.53;100.00
13348;BME280;6743;49.934;9.138;2023-02-12T04:21:43;102570.56;;;4.57;100.00
13348;BME280;6743;49.934;9.138;2023-02-12T04:24:17;102578.44;;;4.57;100.00
13348;BME280;6743;49.934;9.138;2023-02-12T04:26:48;102583.63;;;4.59;100.00
13348;BME280;6743;49.934;9.138;2023-02-12T04:29:20;102583.63;;;4.59;100.00
13348;BME280;6743;49.934;9.138;2023-02-12T04:31:55;102595.00;;;4.59;100.00
13348;BME280;6743;49.934;9.138;2023-02-12T04:34:26;102584.56;;;4.58;100.00
13348;BME280;6743;49.934;9.138;2023-02-12T04:37:02;102589.75;;;4.59;100.00
13348;BME280;6743;49.934;9.138;2023-02-12T04:39:32;102591.53;;;4.59;100.00
13348;BME280;6743;49.934;9.138;2023-02-12T04:42:01;102597.69;;;4.58;100.00
13348;BME280;6743;49.934;9.138;2023-02-12T04:44:29;102597.69;;;4.58;100.00
13348;BME280;6743;49.934;9.138;2023-02-12T04:46:55;102598.56;;;4.58;100.00
13348;BME280;6743;49.934;9.138;2023-02-12T04:49:22;102598.56;;;4.58;100.00
13348;BME280;6743;49.934;9.138;2023-02-12T04:51:48;102601.19;;;4.58;100.00
13348;BME280;6743;49.934;9.138;2023-02-12T04:54:16;102599.47;;;4.57;100.00
13348;BME280;6743;49.934;9.138;2023-02-12T04:56:43;102603.88;;;4.57;100.00
13348;BME280;6743;49.934;9.138;2023-02-12T04:59:09;102605.59;;;4.58;100.00
13348;BME280;6743;49.934;9.138;2023-02-12T05:01:36;102602.94;;;4.58;100.00
13348;BME280;6743;49.934;9.138;2023-02-12T05:04:03;102608.22;;;4.58;100.00
13348;BME280;6743;49.934;9.138;2023-02-12T05:06:30;102584.91;;;4.50;100.00
13348;BME280;6743;49.934;9.138;2023-02-12T05:08:56;102585.75;;;4.51;100.00
13348;BME280;6743;49.934;9.138;2023-02-12T05:11:23;102602.94;;;4.58;100.00
13348;BME280;6743;49.934;9.138;2023-02-12T05:13:50;102595.91;;;4.58;100.00
13348;BME280;6743;49.934;9.138;2023-02-12T05:16:17;102598.56;;;4.58;100.00
13348;BME280;6743;49.934;9.138;2023-02-12T05:18:43;102576.25;;;4.48;100.00
13348;BME280;6743;49.934;9.138;2023-02-12T05:21:10;102593.44;;;4.55;100.00
13348;BME280;6743;49.934;9.138;2023-02-12T05:23:38;102597.69;;;4.58;100.00
13348;BME280;6743;49.934;9.138;2023-02-12T05:26:06;102589.06;;;4.56;100.00
13348;BME280;6743;49.934;9.138;2023-02-12T05:28:33;102594.22;;;4.57;100.00
13348;BME280;6743;49.934;9.138;2023-02-12T05:31:00;102598.63;;;4.57;100.00
13348;BME280;6743;49.934;9.138;2023-02-12T05:33:26;102571.28;;;4.42;100.00
13348;BME280;6743;49.934;9.138;2023-02-12T05:35:52;102595.97;;;4.57;100.00
13348;BME280;6743;49.934;9.138;2023-02-12T05:38:19;102594.31;;;4.56;100.00
13348;BME280;6743;49.934;9.138;2023-02-12T05:40:45;102591.69;;;4.56;100.00
13348;BME280;6743;49.934;9.138;2023-02-12T05:43:12;102589.97;;;4.55;100.00
13348;BME280;6743;49.934;9.138;2023-02-12T05:45:38;102584.72;;;4.55;100.00
13348;BME280;6743;49.934;9.138;2023-02-12T05:48:05;102588.25;;;4.54;100.00
13348;BME280;6743;49.934;9.138;2023-02-12T05:50:32;102591.81;;;4.53;100.00
13348;BME280;6743;49.934;9.138;2023-02-12T05:52:59;102597.06;;;4.53;100.00
13348;BME280;6743;49.934;9.138;2023-02-12T05:55:26;102581.56;;;4.47;100.00
13348;BME280;6743;49.934;9.138;2023-02-12T05:57:54;102597.13;;;4.51;100.00
13348;BME280;6743;49.934;9.138;2023-02-12T06:00:22;102584.25;;;4.45;100.00
13348;BME280;6743;49.934;9.138;2023-02-12T06:02:49;102585.97;;;4.46;100.00
13348;BME280;6743;49.934;9.138;2023-02-12T06:05:15;102599.81;;;4.50;100.00
13348;BME280;6743;49.934;9.138;2023-02-12T06:07:41;102599.00;;;4.49;100.00
13348;BME280;6743;49.934;9.138;2023-02-12T06:10:08;102601.69;;;4.48;100.00
13348;BME280;6743;49.934;9.138;2023-02-12T06:12:34;102595.56;;;4.47;100.00
13348;BME280;6743;49.934;9.138;2023-02-12T06:15:00;102596.41;;;4.48;100.00
13348;BME280;6743;49.934;9.138;2023-02-12T06:17:26;102589.44;;;4.47;100.00
13348;BME280;6743;49.934;9.138;2023-02-12T06:19:52;102598.25;;;4.46;100.00
13348;BME280;6743;49.934;9.138;2023-02-12T06:22:18;102593.91;;;4.45;100.00
13348;BME280;6743;49.934;9.138;2023-02-12T06:24:44;102595.63;;;4.46;100.00
13348;BME280;6743;49.934;9.138;2023-02-12T06:27:10;102597.41;;;4.45;100.00
13348;BME280;6743;49.934;9.138;2023-02-12T06:29:36;102601.81;;;4.45;100.00
13348;BME280;6743;49.934;9.138;2023-02-12T06:32:02;102612.31;;;4.45;100.00
13348;BME280;6743;49.934;9.138;2023-02-12T06:34:28;102591.63;;;4.37;100.00
13348;BME280;6743;49.934;9.138;2023-02-12T06:36:55;102600.94;;;4.44;100.00
13348;BME280;6743;49.934;9.138;2023-02-12T06:39:21;102600.03;;;4.45;100.00
13348;BME280;6743;49.934;9.138;2023-02-12T06:41:47;102602.59;;;4.47;100.00
13348;BME280;6743;49.934;9.138;2023-02-12T06:44:13;102586.75;;;4.48;100.00
13348;BME280;6743;49.934;9.138;2023-02-12T06:46:39;102595.50;;;4.49;100.00
13348;BME280;6743;49.934;9.138;2023-02-12T06:49:05;102594.56;;;4.50;100.00
13348;BME280;6743;49.934;9.138;2023-02-12T06:51:31;102598.03;;;4.50;100.00
13348;BME280;6743;49.934;9.138;2023-02-12T06:53:58;102603.22;;;4.52;100.00
13348;BME280;6743;49.934;9.138;2023-02-12T06:56:25;102605.87;;;4.52;100.00
13348;BME280;6743;49.934;9.138;2023-02-12T06:58:53;102616.31;;;4.53;100.00
13348;BME280;6743;49.934;9.138;2023-02-12T07:01:22;102614.59;;;4.52;100.00
13348;BME280;6743;49.934;9.138;2023-02-12T07:03:51;102615.47;;;4.53;100.00
13348;BME280;6743;49.934;9.138;2023-02-12T07:06:18;102619.81;;;4.54;100.00
13348;BME280;6743;49.934;9.138;2023-02-12T07:08:44;102608.88;;;4.43;100.00
13348;BME280;6743;49.934;9.138;2023-02-12T07:11:11;102620.72;;;4.53;100.00
13348;BME280;6743;49.934;9.138;2023-02-12T07:13:38;102620.78;;;4.51;100.00
13348;BME280;6743;49.934;9.138;2023-02-12T07:16:06;102620.72;;;4.53;100.00
13348;BME280;6743;49.934;9.138;2023-02-12T07:18:33;102628.66;;;4.51;100.00
13348;BME280;6743;49.934;9.138;2023-02-12T07:20:59;102622.50;;;4.52;100.00
13348;BME280;6743;49.934;9.138;2023-02-12T07:23:25;102629.53;;;4.52;100.00
13348;BME280;6743;49.934;9.138;2023-02-12T07:25:55;102625.12;;;4.52;100.00
13348;BME280;6743;49.934;9.138;2023-02-12T07:28:22;102627.75;;;4.52;100.00
13348;BME280;6743;49.934;9.138;2023-02-12T07:30:51;102633.81;;;4.54;100.00
13348;BME280;6743;49.934;9.138;2023-02-12T07:33:19;102626.03;;;4.51;100.00
13348;BME280;6743;49.934;9.138;2023-02-12T07:35:49;102627.53;;;4.57;100.00
13348;BME280;6743;49.934;9.138;2023-02-12T07:38:14;102631.03;;;4.57;100.00
13348;BME280;6743;49.934;9.138;2023-02-12T07:40:40;102637.06;;;4.59;100.00
13348;BME280;6743;49.934;9.138;2023-02-12T07:43:08;102630.91;;;4.60;100.00
13348;BME280;6743;49.934;9.138;2023-02-12T07:45:35;102638.78;;;4.60;100.00
13348;BME280;6743;49.934;9.138;2023-02-12T07:48:01;102637.88;;;4.61;100.00
13348;BME280;6743;49.934;9.138;2023-02-12T07:50:27;102619.06;;;4.50;100.00
13348;BME280;6743;49.934;9.138;2023-02-12T07:52:53;102626.56;;;4.59;100.00
13348;BME280;6743;49.934;9.138;2023-02-12T07:55:20;102635.03;;;4.66;100.00
13348;BME280;6743;49.934;9.138;2023-02-12T07:57:47;102624.78;;;4.60;100.00
13348;BME280;6743;49.934;9.138;2023-02-12T08:00:18;102646.28;;;4.69;100.00
13348;BME280;6743;49.934;9.138;2023-02-12T08:02:56;102628.91;;;4.65;100.00
13348;BME280;6743;49.934;9.138;2023-02-12T08:05:22;102649.53;;;4.74;100.00
13348;BME280;6743;49.934;9.138;2023-02-12T08:07:48;102638.97;;;4.76;100.00
13348;BME280;6743;49.934;9.138;2023-02-12T08:10:14;102646.75;;;4.78;100.00
13348;BME280;6743;49.934;9.138;2023-02-12T08:12:40;102640.50;;;4.80;100.00
13348;BME280;6743;49.934;9.138;2023-02-12T08:15:07;102643.03;;;4.83;100.00
13348;BME280;6743;49.934;9.138;2023-02-12T08:17:33;102641.16;;;4.85;100.00
13348;BME280;6743;49.934;9.138;2023-02-12T08:20:00;102613.91;;;4.67;100.00
13348;BME280;6743;49.934;9.138;2023-02-12T08:22:26;102650.56;;;4.91;100.00
13348;BME280;6743;49.934;9.138;2023-02-12T08:24:53;102654.81;;;4.93;100.00
13348;BME280;6743;49.934;9.138;2023-02-12T08:27:21;102653.81;;;4.96;100.00
13348;BME280;6743;49.934;9.138;2023-02-12T08:29:47;102661.56;;;4.99;100.00
13348;BME280;6743;49.934;9.138;2023-02-12T08:32:14;102665.78;;;5.03;100.00
13348;BME280;6743;49.934;9.138;2023-02-12T08:34:41;102651.91;;;4.99;100.00
13348;BME280;6743;49.934;9.138;2023-02-12T08:37:09;102670.75;;;5.09;100.00
13348;BME280;6743;49.934;9.138;2023-02-12T08:39:36;102655.09;;;5.06;100.00
13348;BME280;6743;49.934;9.138;2023-02-12T08:42:04;102671.31;;;5.15;100.00
13348;BME280;6743;49.934;9.138;2023-02-12T08:44:30;102658.03;;;5.19;100.00
13348;BME280;6743;49.934;9.138;2023-02-12T08:47:01;102669.31;;;5.21;100.00
13348;BME280;6743;49.934;9.138;2023-02-12T08:49:29;102657.31;;;5.15;100.00
13348;BME280;6743;49.934;9.138;2023-02-12T08:51:56;102674.41;;;5.25;100.00
13348;BME280;6743;49.934;9.138;2023-02-12T08:54:31;102682.06;;;5.30;100.00
13348;BME280;6743;49.934;9.138;2023-02-12T08:57:00;102680.22;;;5.32;100.00
13348;BME280;6743;49.934;9.138;2023-02-12T08:59:36;102680.97;;;5.34;100.00
13348;BME280;6743;49.934;9.138;2023-02-12T09:02:02;102672.53;;;5.27;100.00
13348;BME280;6743;49.934;9.138;2023-02-12T09:04:37;102687.66;;;5.41;100.00
13348;BME280;6743;49.934;9.138;2023-02-12T09:07:05;102684.06;;;5.43;100.00
13348;BME280;6743;49.934;9.138;2023-02-12T09:09:31;102684.75;;;5.47;100.00
13348;BME280;6743;49.934;9.138;2023-02-12T09:11:57;102686.38;;;5.49;100.00
13348;BME280;6743;49.934;9.138;2023-02-12T09:14:23;102682.75;;;5.52;100.00
13348;BME280;6743;49.934;9.138;2023-02-12T09:16:49;102681.75;;;5.54;100.00
13348;BME280;6743;49.934;9.138;2023-02-12T09:19:18;102685.09;;;5.58;100.00
13348;BME280;6743;49.934;9.138;2023-02-12T09:21:50;102687.56;;;5.61;100.00
13348;BME280;6743;49.934;9.138;2023-02-12T09:24:17;102685.66;;;5.65;100.00
13348;BME280;6743;49.934;9.138;2023-02-12T09:26:43;102682.00;;;5.67;100.00
13348;BME280;6743;49.934;9.138;2023-02-12T09:29:09;102685.38;;;5.71;100.00
13348;BME280;6743;49.934;9.138;2023-02-12T09:31:35;102681.75;;;5.73;100.00
13348;BME280;6743;49.934;9.138;2023-02-12T09:34:03;102686.84;;;5.76;100.00
13348;BME280;6743;49.934;9.138;2023-02-12T09:36:30;102683.97;;;5.81;100.00
13348;BME280;6743;49.934;9.138;2023-02-12T09:38:57;102685.53;;;5.85;100.00
13348;BME280;6743;49.934;9.138;2023-02-12T09:44:21;102690.41;;;5.94;100.00
13348;BME280;6743;49.934;9.138;2023-02-12T09:46:56;102684.13;;;5.97;100.00
13348;BME280;6743;49.934;9.138;2023-02-12T09:49:43;102690.94;;;6.01;100.00
13348;BME280;6743;49.934;9.138;2023-02-12T09:52:16;102694.34;;;6.03;100.00
13348;BME280;6743;49.934;9.138;2023-02-12T09:54:43;102700.34;;;6.06;100.00
13348;BME280;6743;49.934;9.138;2023-02-12T09:57:16;102694.03;;;6.09;100.00
13348;BME280;6743;49.934;9.138;2023-02-12T09:59:48;102696.66;;;6.09;100.00
13348;BME280;6743;49.934;9.138;2023-02-12T10:02:18;102695.69;;;6.11;100.00
13348;BME280;6743;49.934;9.138;2023-02-12T10:04:45;102698.94;;;6.16;100.00
13348;BME280;6743;49.934;9.138;2023-02-12T10:07:18;102696.16;;;6.19;100.00
13348;BME280;6743;49.934;9.138;2023-02-12T10:10:01;102692.41;;;6.23;100.00
13348;BME280;6743;49.934;9.138;2023-02-12T10:12:34;102694.84;;;6.28;100.00
13348;BME280;6743;49.934;9.138;2023-02-12T10:15:20;102691.19;;;6.30;100.00
13348;BME280;6743;49.934;9.138;2023-02-12T10:17:56;102685.75;;;6.33;100.00
13348;BME280;6743;49.934;9.138;2023-02-12T10:20:54;102695.06;;;6.41;100.00
13348;BME280;6743;49.934;9.138;2023-02-12T10:23:40;102693.97;;;6.45;100.00
13348;BME280;6743;49.934;9.138;2023-02-12T10:26:17;102692.03;;;6.48;100.00
13348;BME280;6743;49.934;9.138;2023-02-12T10:28:44;102690.87;;;6.54;100.00
13348;BME280;6743;49.934;9.138;2023-02-12T10:31:18;102681.00;;;6.57;100.00
13348;BME280;6743;49.934;9.138;2023-02-12T10:33:50;102689.44;;;6.64;100.00
13348;BME280;6743;49.934;9.138;2023-02-12T10:36:31;102685.00;;;6.64;100.00
13348;BME280;6743;49.934;9.138;2023-02-12T10:39:02;102687.25;;;6.72;100.00
13348;BME280;6743;49.934;9.138;2023-02-12T10:41:31;102679.97;;;6.77;100.00
13348;BME280;6743;49.934;9.138;2023-02-12T10:44:01;102687.72;;;6.80;100.00
13348;BME280;6743;49.934;9.138;2023-02-12T10:46:29;102688.41;;;6.84;100.00
13348;BME280;6743;49.934;9.138;2023-02-12T10:48:57;102689.94;;;6.88;100.00
13348;BME280;6743;49.934;9.138;2023-02-12T10:51:40;102682.72;;;6.91;100.00
13348;BME280;6743;49.934;9.138;2023-02-12T10:54:30;102680.84;;;6.93;100.00
13348;BME280;6743;49.934;9.138;2023-02-12T10:56:57;102674.37;;;6.99;100.00
13348;BME280;6743;49.934;9.138;2023-02-12T10:59:23;102673.22;;;7.04;100.00
13348;BME280;6743;49.934;9.138;2023-02-12T11:01:50;102666.75;;;7.10;100.00
13348;BME280;6743;49.934;9.138;2023-02-12T11:04:23;102669.03;;;7.16;100.00
13348;BME280;6743;49.934;9.138;2023-02-12T11:06:56;102666.22;;;7.19;100.00
13348;BME280;6743;49.934;9.138;2023-02-12T11:09:27;102666.59;;;7.29;100.00
13348;BME280;6743;49.934;9.138;2023-02-12T11:11:55;102658.50;;;7.32;100.00
13348;BME280;6743;49.934;9.138;2023-02-12T11:14:23;102660.03;;;7.36;100.00
13348;BME280;6743;49.934;9.138;2023-02-12T11:16:52;102654.47;;;7.40;100.00
13348;BME280;6743;49.934;9.138;2023-02-12T11:19:23;102652.44;;;7.45;100.00
13348;BME280;6743;49.934;9.138;2023-02-12T11:21:49;102652.19;;;7.50;100.00
13348;BME280;6743;49.934;9.138;2023-02-12T11:24:28;102643.06;;;7.56;100.00
13348;BME280;6743;49.934;9.138;2023-02-12T11:27:18;102643.47;;;7.64;100.00
13348;BME280;6743;49.934;9.138;2023-02-12T11:30:09;102641.41;;;7.69;100.00
13348;BME280;6743;49.934;9.138;2023-02-12T11:32:36;102632.19;;;7.76;100.00
13348;BME280;6743;49.934;9.138;2023-02-12T11:35:14;102632.88;;;7.79;100.00
13348;BME280;6743;49.934;9.138;2023-02-12T11:37:44;102629.97;;;7.84;100.00
13348;BME280;6743;49.934;9.138;2023-02-12T11:40:18;102609.84;;;7.81;100.00
13348;BME280;6743;49.934;9.138;2023-02-12T11:42:48;102617.91;;;7.94;100.00
13348;BME280;6743;49.934;9.138;2023-02-12T11:45:17;102620.28;;;7.99;100.00
13348;BME280;6743;49.934;9.138;2023-02-12T11:47:46;102603.09;;;7.91;100.00
13348;BME280;6743;49.934;9.138;2023-02-12T11:50:21;102614.13;;;7.98;100.00
13348;BME280;6743;49.934;9.138;2023-02-12T11:52:50;102608.69;;;8.01;100.00
13348;BME280;6743;49.934;9.138;2023-02-12T11:55:20;102582.03;;;7.90;100.00
13348;BME280;6743;49.934;9.138;2023-02-12T11:57:49;102598.00;;;8.03;100.00
13348;BME280;6743;49.934;9.138;2023-02-12T12:00:17;102603.78;;;8.09;100.00
13348;BME280;6743;49.934;9.138;2023-02-12T12:02:50;102597.47;;;8.12;100.00
13348;BME280;6743;49.934;9.138;2023-02-12T12:05:21;102598.16;;;8.15;100.00
13348;BME280;6743;49.934;9.138;2023-02-12T12:07:52;102584.06;;;8.15;100.00
13348;BME280;6743;49.934;9.138;2023-02-12T12:10:30;102573.66;;;8.12;100.00
13348;BME280;6743;49.934;9.138;2023-02-12T12:13:01;102600.03;;;8.27;100.00
13348;BME280;6743;49.934;9.138;2023-02-12T12:15:32;102590.22;;;8.29;100.00
13348;BME280;6743;49.934;9.138;2023-02-12T12:18:24;102586.37;;;8.35;100.00
13348;BME280;6743;49.934;9.138;2023-02-12T12:21:15;102585.91;;;8.43;100.00
13348;BME280;6743;49.934;9.138;2023-02-12T12:23:48;102586.41;;;8.49;100.00
13348;BME280;6743;49.934;9.138;2023-02-12T12:26:22;102589.59;;;8.54;100.00
13348;BME280;6743;49.934;9.138;2023-02-12T12:28:53;102584.94;;;8.58;100.00
13348;BME280;6743;49.934;9.138;2023-02-12T12:31:26;102589.97;;;8.62;100.00
13348;BME280;6743;49.934;9.138;2023-02-12T12:34:01;102576.66;;;8.64;100.00
13348;BME280;6743;49.934;9.138;2023-02-12T12:36:39;102572.09;;;8.66;100.00
13348;BME280;6743;49.934;9.138;2023-02-12T12:39:15;102576.44;;;8.81;100.00
13348;BME280;6743;49.934;9.138;2023-02-12T12:42:06;102575.09;;;8.88;100.00
13348;BME280;6743;49.934;9.138;2023-02-12T12:44:55;102568.47;;;8.95;100.00
13348;BME280;6743;49.934;9.138;2023-02-12T12:47:39;102551.44;;;8.85;100.00
13348;BME280;6743;49.934;9.138;2023-02-12T12:53:27;102555.69;;;9.02;100.00
13348;BME280;6743;49.934;9.138;2023-02-12T12:56:21;102555.59;;;9.03;100.00
13348;BME280;6743;49.934;9.138;2023-02-12T12:59:25;102560.78;;;9.05;100.00
13348;BME280;6743;49.934;9.138;2023-02-12T13:02:16;102559.00;;;9.05;100.00
13348;BME280;6743;49.934;9.138;2023-02-12T13:05:17;102543.84;;;9.07;100.00
13348;BME280;6743;49.934;9.138;2023-02-12T13:07:54;102522.31;;;8.99;100.00
13348;BME280;6743;49.934;9.138;2023-02-12T13:10:32;102544.97;;;9.18;100.00
13348;BME280;6743;49.934;9.138;2023-02-12T13:13:17;102539.44;;;9.21;100.00
13348;BME280;6743;49.934;9.138;2023-02-12T13:15:50;102538.31;;;9.25;100.00
13348;BME280;6743;49.934;9.138;2023-02-12T13:18:30;102533.66;;;9.28;100.00
13348;BME280;6743;49.934;9.138;2023-02-12T13:21:03;102539.78;;;9.29;100.00
13348;BME280;6743;49.934;9.138;2023-02-12T13:23:40;102532.38;;;9.34;100.00
13348;BME280;6743;49.934;9.138;2023-02-12T13:26:13;102529.44;;;9.38;100.00
13348;BME280;6743;49.934;9.138;2023-02-12T13:28:45;102538.13;;;9.40;100.00